KMML/MML METAR and TAF weather

Enter ICAO airport designator
Station Type Date Time Source
KMML METAR 2019/10/23 12:56 UTC NOAA

KMML 231256Z AUTO 32003KT 10SM OVC080 01/M01 A2984 RMK AO2 SLP120 T00111011 FZRANO


Station Type Date Time Source
KMML Decoded METAR 2019/10/23 12:56 UTC NOAA

Marshall, Southwest Minnesota Regional Airport - Marshall/Ryan Field, MN, United States (KMML) 44-27N 095-49W
Oct 23, 2019 - 08:56 AM EDT / 2019.10.23 1256 UTC
Wind: from the NW (320 degrees) at 3 MPH (3 KT):0
Visibility: 10 mile(s):0
Sky conditions: overcast
Temperature: 34.0 F (1.1 C)
Dew Point: 30.0 F (-1.1 C)
Relative Humidity: 85%
Pressure (altimeter): 29.84 in. Hg (1010 hPa)
ob: KMML 231256Z AUTO 32003KT 10SM OVC080 01/M01 A2984 RMK AO2 SLP120 T00111011 FZRANO
cycle: 13

Station Type Date Time Source
KMML TAF UTC NOAA

Error!

Example: see airport list